This is the latest recevied weather packets stored in our database for station/object KO6TH-15. If no packets are shown the sender has not sent any weather packets the latest 10 day(s).
| Time | Temp. | Humidity | Pressure | Rain* | Wind** | Luminosity | Snow |
|---|---|---|---|---|---|---|---|
| 1778205439 | 25° C | 66% | 0 hPa | 0 mm | - | - | - |
| 1778204809 | 25° C | 64% | 0 hPa | 0 mm | - | - | - |
| 1778204209 | 25.56° C | 64% | 0 hPa | 0 mm | - | - | - |
| 1778203579 | 26.11° C | 63% | 0 hPa | 0 mm | - | - | - |
| 1778202949 | 26.11° C | 61% | 0 hPa | 0 mm | - | - | - |
| 1778202319 | 26.11° C | 62% | 0 hPa | 0 mm | - | - | - |
| 1778201719 | 26.11° C | 61% | 0 hPa | 0 mm | - | - | - |
| 1778201089 | 26.11° C | 61% | 0 hPa | 0 mm | - | - | - |
| 1778200459 | 26.67° C | 61% | 0 hPa | 0 mm | - | - | - |
| 1778199829 | 27.22° C | 59% | 0 hPa | 0 mm | - | - | - |
| 1778199199 | 27.22° C | 60% | 0 hPa | 0 mm | - | - | - |
| 1778198570 | 28.33° C | 56% | 0 hPa | 0 mm | - | - | - |
| 1778197969 | 30.56° C | 53% | 0 hPa | 0 mm | - | - | - |
| 1778197369 | 30.56° C | 52% | 0 hPa | 0 mm | - | - | - |
| 1778196740 | 31.11° C | 51% | 0 hPa | 0 mm | - | - | - |
| 1778196139 | 28.89° C | 56% | 0 hPa | 0 mm | - | - | - |
| 1778195509 | 31.11° C | 52% | 0 hPa | 0 mm | - | - | - |
| 1778194879 | 30.56° C | 53% | 0 hPa | 0 mm | - | - | - |
| 1778194249 | 30° C | 54% | 0 hPa | 0 mm | - | - | - |
| 1778193619 | 28.89° C | 57% | 0 hPa | 0 mm | - | - | - |
| 1778192990 | 30.56° C | 52% | 0 hPa | 0 mm | - | - | - |
| 1778192389 | 30.56° C | 53% | 0 hPa | 0 mm | - | - | - |
| 1778191760 | 31.11° C | 51% | 0 hPa | 0 mm | - | - | - |
| 1778191160 | 30.56° C | 53% | 0 hPa | 0 mm | - | - | - |
| 1778190560 | 30° C | 53% | 0 hPa | 0 mm | - | - | - |
* Rain latest hour (hover to see other rain measurements)
** Current wind speed in m/s (hover to see current wind gust speed)